Time;durP1;ratioP1;P1;durP2;ratioP2;P2;SDS_P1;SDS_P2;PMS_P1;PMS_P2;Temp;Humidity;BMP_temperature;BMP_pressure;BME280_temperature;BME280_humidity;BME280_pressure;Samples;Min_cycle;Max_cycle;Signal;HPM_P1;HPM_P2
2021/08/06 00:01:27;;;;;;;38.73;35.07;;;;;;;19.35;66.00;100336.72;4965095;28;20769;-72
2021/08/06 00:03:54;;;;;;;38.90;35.20;;;;;;;19.58;65.51;100332.34;4967447;28;20228;-72
2021/08/06 00:06:21;;;;;;;35.93;32.53;;;;;;;19.72;65.38;100328.88;4965649;28;20739;-72
2021/08/06 00:08:48;;;;;;;36.43;32.93;;;;;;;19.58;65.36;100326.91;4968324;28;20291;-72
2021/08/06 00:11:15;;;;;;;34.40;30.90;;;;;;;19.50;66.01;100324.84;4967189;28;20954;-74
2021/08/06 00:13:41;;;;;;;34.67;31.23;;;;;;;19.59;65.54;100325.81;4966337;28;20220;-74
2021/08/06 00:16:08;;;;;;;33.57;30.20;;;;;;;19.56;65.66;100323.66;4966999;28;20232;-74
2021/08/06 00:18:34;;;;;;;33.57;30.47;;;;;;;19.72;65.17;100318.84;4965838;28;20791;-75
2021/08/06 00:21:00;;;;;;;30.77;27.87;;;;;;;19.66;65.88;100325.41;4966097;28;20267;-72
2021/08/06 00:23:28;;;;;;;30.60;27.57;;;;;;;19.59;66.01;100322.31;4967635;28;20284;-72
2021/08/06 00:25:56;;;;;;;30.97;27.73;;;;;;;19.65;66.31;100323.81;4967681;28;20217;-71
2021/08/06 00:28:22;;;;;;;30.27;27.33;;;;;;;19.45;67.98;100313.28;4966253;28;20221;-72
2021/08/06 00:30:48;;;;;;;30.23;27.43;;;;;;;19.45;67.58;100307.88;4966301;28;20224;-72
2021/08/06 00:33:15;;;;;;;28.80;26.20;;;;;;;19.59;66.83;100290.59;4965392;28;20223;-72
2021/08/06 00:35:41;;;;;;;28.10;25.60;;;;;;;19.79;65.61;100294.84;4965696;28;20271;-72
2021/08/06 00:38:07;;;;;;;29.60;26.90;;;;;;;20.05;64.47;100284.34;4965287;28;20224;-72
2021/08/06 00:40:34;;;;;;;29.73;26.97;;;;;;;19.88;65.64;100287.63;4966167;28;20681;-72
2021/08/06 00:43:02;;;;;;;29.50;26.70;;;;;;;19.92;65.62;100287.84;4965272;28;20212;-72
2021/08/06 00:45:28;;;;;;;27.67;25.13;;;;;;;19.89;64.98;100274.88;4964417;28;20561;-72
2021/08/06 00:47:55;;;;;;;27.77;25.17;;;;;;;19.57;66.42;100287.38;4964706;28;20669;-72
2021/08/06 00:50:21;;;;;;;28.33;25.83;;;;;;;19.74;66.11;100283.28;4966650;28;20739;-72
2021/08/06 00:52:48;;;;;;;26.83;24.23;;;;;;;19.68;65.54;100279.84;4964163;28;20304;-72
2021/08/06 00:55:14;;;;;;;26.93;24.53;;;;;;;19.68;66.16;100275.22;4965368;28;20213;-72
2021/08/06 00:57:41;;;;;;;27.17;24.73;;;;;;;19.71;65.49;100279.28;4963979;28;20243;-72
2021/08/06 01:00:10;;;;;;;28.00;25.20;;;;;;;19.65;65.78;100272.31;4964746;28;20212;-72
2021/08/06 01:02:40;;;;;;;29.23;26.43;;;;;;;19.60;65.94;100269.72;4964021;28;20299;-72
2021/08/06 01:05:10;;;;;;;29.83;27.03;;;;;;;19.50;66.44;100265.22;4963741;28;20232;-72
2021/08/06 01:07:43;;;;;;;28.63;25.93;;;;;;;19.43;66.69;100264.78;4963352;28;20623;-72
2021/08/06 01:10:12;;;;;;;27.33;24.73;;;;;;;19.29;67.19;100264.72;4964825;28;20266;-72
2021/08/06 01:12:45;;;;;;;27.70;24.97;;;;;;;19.23;67.48;100259.69;4964598;28;20758;-72
2021/08/06 01:15:13;;;;;;;26.43;24.03;;;;;;;19.12;68.26;100259.03;4964960;28;20220;-72
2021/08/06 01:17:42;;;;;;;25.53;23.03;;;;;;;19.10;68.16;100261.25;4964035;28;20679;-72
2021/08/06 01:20:12;;;;;;;27.73;25.20;;;;;;;19.11;68.45;100260.16;4966230;28;20672;-72
2021/08/06 01:22:41;;;;;;;26.57;24.00;;;;;;;19.04;68.98;100262.41;4966393;28;20245;-72
2021/08/06 01:25:09;;;;;;;25.30;23.00;;;;;;;19.16;67.96;100264.66;4967682;28;20672;-72
2021/08/06 01:27:38;;;;;;;26.03;23.53;;;;;;;19.11;68.03;100252.03;4964412;28;20561;-72
2021/08/06 01:30:06;;;;;;;26.63;23.93;;;;;;;19.09;68.55;100259.66;4965291;28;20247;-72
2021/08/06 01:32:33;;;;;;;25.47;23.07;;;;;;;19.14;68.56;100256.84;4968768;28;20223;-72
2021/08/06 01:34:59;;;;;;;24.37;22.17;;;;;;;19.05;68.97;100254.00;4969208;28;20236;-72
2021/08/06 01:37:26;;;;;;;24.70;22.27;;;;;;;19.27;68.00;100258.81;4968019;28;20228;-72
2021/08/06 01:39:52;;;;;;;23.93;21.63;;;;;;;18.98;68.87;100248.16;4967715;28;20282;-72
2021/08/06 01:42:26;;;;;;;23.97;21.67;;;;;;;18.89;69.62;100241.78;4969152;28;20306;-72
2021/08/06 01:44:55;;;;;;;23.77;21.63;;;;;;;18.88;69.68;100242.06;4968277;28;20236;-72
2021/08/06 01:47:24;;;;;;;24.47;22.20;;;;;;;19.15;68.39;100241.41;4968182;28;20216;-72
2021/08/06 01:49:55;;;;;;;24.67;22.27;;;;;;;19.26;68.37;100237.44;4967766;28;20288;-72
2021/08/06 01:52:27;;;;;;;23.50;21.33;;;;;;;19.25;68.52;100242.06;4968375;28;20641;-72
2021/08/06 01:54:57;;;;;;;23.10;21.00;;;;;;;19.24;67.68;100234.22;4967960;28;20286;-72
2021/08/06 01:57:24;;;;;;;23.50;21.20;;;;;;;19.07;68.36;100234.75;4967653;28;20272;-72
2021/08/06 01:59:50;;;;;;;22.60;20.50;;;;;;;19.18;67.96;100232.69;4968186;28;20288;-72
2021/08/06 02:02:18;;;;;;;23.57;21.27;;;;;;;19.19;68.20;100228.91;4969754;28;20295;-72
2021/08/06 02:04:48;;;;;;;22.37;20.13;;;;;;;19.09;68.60;100237.97;4970196;28;20693;-72
2021/08/06 02:07:15;;;;;;;21.03;19.07;;;;;;;19.26;68.09;100232.81;4968142;28;20212;-72
2021/08/06 02:09:41;;;;;;;21.70;19.70;;;;;;;19.19;68.31;100224.28;4969535;28;20715;-72
2021/08/06 02:12:08;;;;;;;25.27;19.73;;;;;;;19.09;69.28;100221.72;4968574;28;20267;-72
2021/08/06 02:14:35;;;;;;;22.57;20.50;;;;;;;19.00;69.85;100218.06;4969062;28;20271;-72
2021/08/06 02:17:03;;;;;;;22.60;20.20;;;;;;;19.14;69.75;100224.34;4968999;28;20220;-72
2021/08/06 02:19:31;;;;;;;21.30;19.00;;;;;;;19.17;69.67;100212.91;4969454;28;20975;-72
2021/08/06 02:22:00;;;;;;;22.60;20.40;;;;;;;19.14;70.04;100218.13;4970714;28;20237;-72
2021/08/06 02:24:28;;;;;;;23.30;21.00;;;;;;;19.30;69.13;100214.88;4970221;28;20217;-72
2021/08/06 02:26:55;;;;;;;21.43;19.43;;;;;;;19.05;69.82;100215.28;4966793;28;20265;-72
2021/08/06 02:29:23;;;;;;;21.97;19.87;;;;;;;19.23;69.21;100208.25;4969636;28;20219;-72
2021/08/06 02:31:50;;;;;;;22.80;20.50;;;;;;;19.27;69.07;100204.63;4967300;28;20435;-72
2021/08/06 02:34:17;;;;;;;22.17;20.07;;;;;;;19.23;68.99;100200.13;4968155;28;20269;-72
2021/08/06 02:36:45;;;;;;;20.17;18.10;;;;;;;19.00;69.68;100199.13;4967416;28;20216;-72
2021/08/06 02:39:12;;;;;;;20.87;18.80;;;;;;;19.02;69.50;100188.78;4968082;28;20275;-72
2021/08/06 02:41:38;;;;;;;20.77;18.67;;;;;;;18.91;69.92;100200.88;4965706;28;20243;-72
2021/08/06 02:44:05;;;;;;;20.73;18.83;;;;;;;18.90;70.26;100186.53;4971841;28;20222;-72
2021/08/06 02:46:32;;;;;;;20.80;18.60;;;;;;;19.04;70.18;100187.41;4967933;28;20636;-72
2021/08/06 02:48:58;;;;;;;20.33;18.33;;;;;;;19.06;69.71;100190.63;4967603;28;20989;-72
2021/08/06 02:51:24;;;;;;;20.00;18.00;;;;;;;19.03;69.55;100185.78;4966646;28;20620;-72
2021/08/06 02:53:52;;;;;;;17.70;15.90;;;;;;;19.16;69.22;100178.81;4971276;28;21255;-72
2021/08/06 02:56:18;;;;;;;18.93;17.13;;;;;;;18.97;69.88;100178.88;4966518;28;20248;-72
2021/08/06 02:58:45;;;;;;;18.10;16.40;;;;;;;18.97;69.72;100184.28;4966837;28;20224;-72
2021/08/06 03:01:11;;;;;;;16.80;14.77;;;;;;;19.02;69.52;100175.25;4966252;28;20274;-72
2021/08/06 03:03:38;;;;;;;16.30;14.70;;;;;;;18.76;70.23;100185.66;4969696;28;20241;-72
2021/08/06 03:06:04;;;;;;;19.33;15.50;;;;;;;18.86;70.22;100180.13;4965675;28;20274;-72
2021/08/06 03:08:30;;;;;;;15.33;13.80;;;;;;;18.68;71.03;100178.22;4967313;28;20229;-72
2021/08/06 03:10:58;;;;;;;14.07;12.60;;;;;;;18.74;70.78;100177.03;4966726;28;20215;-72
2021/08/06 03:13:24;;;;;;;13.77;12.47;;;;;;;18.71;70.73;100174.94;4966054;28;20220;-72
2021/08/06 03:15:51;;;;;;;13.07;11.87;;;;;;;18.85;70.19;100166.88;4967285;28;20275;-72
2021/08/06 03:18:17;;;;;;;12.57;11.37;;;;;;;18.84;70.08;100165.28;4966625;28;20270;-72
2021/08/06 03:20:44;;;;;;;13.17;11.83;;;;;;;18.94;69.65;100167.81;4967072;28;20229;-72
2021/08/06 03:23:10;;;;;;;12.17;10.90;;;;;;;18.83;70.04;100163.66;4966112;28;20251;-72
2021/08/06 03:25:36;;;;;;;11.67;10.57;;;;;;;19.00;69.55;100155.81;4965982;28;20213;-72
2021/08/06 03:28:04;;;;;;;11.97;10.57;;;;;;;18.97;69.38;100159.91;4966249;28;20221;-72
2021/08/06 03:30:31;;;;;;;11.07;10.00;;;;;;;19.08;69.19;100171.38;4964220;28;20215;-72
2021/08/06 03:32:58;;;;;;;10.20;9.20;;;;;;;19.01;69.88;100170.94;4967851;28;20275;-72
2021/08/06 03:35:25;;;;;;;9.53;8.73;;;;;;;19.05;69.06;100161.94;4964978;28;20265;-72
2021/08/06 03:37:51;;;;;;;9.63;8.70;;;;;;;19.07;69.28;100167.06;4965079;28;20299;-72
2021/08/06 03:40:18;;;;;;;8.93;7.80;;;;;;;18.93;69.78;100164.31;4965102;28;20693;-72
2021/08/06 03:42:45;;;;;;;9.10;8.20;;;;;;;19.06;69.40;100155.44;4965817;28;20245;-72
2021/08/06 03:45:13;;;;;;;7.87;7.07;;;;;;;19.05;69.38;100159.22;4967629;28;20212;-72
2021/08/06 03:47:39;;;;;;;8.07;7.27;;;;;;;19.12;69.05;100158.84;4964349;28;20227;-72
2021/08/06 03:50:08;;;;;;;8.90;7.87;;;;;;;19.15;69.13;100158.25;4964397;28;20240;-72
2021/08/06 03:52:34;;;;;;;9.10;7.30;;;;;;;19.26;69.11;100158.88;4965275;28;20232;-72
2021/08/06 03:55:01;;;;;;;8.10;6.80;;;;;;;19.23;69.24;100154.06;4965669;28;20717;-72
2021/08/06 03:57:27;;;;;;;8.63;6.83;;;;;;;19.20;69.38;100157.38;4967263;28;20334;-72
2021/08/06 03:59:54;;;;;;;7.30;6.70;;;;;;;19.24;70.47;100151.06;4966133;28;20235;-72
2021/08/06 04:02:21;;;;;;;7.63;6.70;;;;;;;19.21;70.25;100154.38;4965442;28;20273;-72
2021/08/06 04:04:48;;;;;;;8.97;6.87;;;;;;;19.18;70.38;100151.44;4967147;28;20241;-72
2021/08/06 04:07:14;;;;;;;6.90;6.20;;;;;;;19.18;70.06;100152.25;4965595;28;20220;-72
2021/08/06 04:09:40;;;;;;;6.60;5.50;;;;;;;18.89;70.91;100152.44;4965011;28;20219;-72
2021/08/06 04:12:07;;;;;;;6.20;5.67;;;;;;;18.74;71.59;100158.91;4967169;28;20256;-72
2021/08/06 04:14:33;;;;;;;8.97;6.10;;;;;;;18.93;70.79;100156.19;4965863;28;20648;-72
2021/08/06 04:17:00;;;;;;;6.30;5.70;;;;;;;18.92;70.91;100159.97;4963499;28;20233;-72
2021/08/06 04:19:27;;;;;;;6.13;5.47;;;;;;;18.82;71.52;100157.44;4965147;28;20237;-72
2021/08/06 04:21:54;;;;;;;5.87;5.27;;;;;;;18.85;70.80;100156.03;4964411;28;20709;-72
2021/08/06 04:24:20;;;;;;;6.00;5.50;;;;;;;18.83;71.33;100159.06;4964296;28;21157;-72
2021/08/06 04:26:46;;;;;;;6.00;5.27;;;;;;;18.69;71.42;100153.59;4964640;28;20609;-72
2021/08/06 04:29:13;;;;;;;5.37;4.40;;;;;;;18.78;71.39;100151.00;4963787;28;20221;-72
2021/08/06 04:31:39;;;;;;;5.70;5.20;;;;;;;18.94;70.82;100155.09;4964018;28;20530;-78
2021/08/06 04:34:06;;;;;;;5.40;4.90;;;;;;;18.90;71.25;100155.97;4965607;28;20244;-77
2021/08/06 04:36:34;;;;;;;5.00;4.57;;;;;;;18.90;70.91;100147.84;4964505;28;20632;-77
2021/08/06 04:39:00;;;;;;;4.77;4.40;;;;;;;18.76;71.54;100155.91;4964272;28;20274;-77
2021/08/06 04:41:26;;;;;;;5.03;4.47;;;;;;;18.86;71.18;100153.03;4965672;28;20543;-77
2021/08/06 04:43:53;;;;;;;5.80;4.50;;;;;;;18.85;71.35;100151.44;4964937;28;20236;-77
2021/08/06 04:46:19;;;;;;;4.77;4.37;;;;;;;18.88;71.50;100150.03;4964345;28;20213;-77
2021/08/06 04:48:45;;;;;;;4.23;3.83;;;;;;;18.67;71.97;100155.75;4965881;28;20252;-77
2021/08/06 04:51:12;;;;;;;5.13;4.53;;;;;;;18.85;71.46;100159.56;4964918;28;20904;-77
2021/08/06 04:53:40;;;;;;;5.00;4.40;;;;;;;19.02;70.89;100156.31;4963984;28;20243;-77
2021/08/06 04:56:09;;;;;;;5.67;4.50;;;;;;;19.09;70.65;100157.53;4963389;28;20242;-77
2021/08/06 04:58:35;;;;;;;6.37;4.57;;;;;;;18.90;71.38;100158.66;4965486;28;20715;-77
2021/08/06 05:01:02;;;;;;;4.93;4.53;;;;;;;18.95;71.85;100154.00;4966180;28;20219;-77
2021/08/06 05:03:28;;;;;;;7.50;4.33;;;;;;;18.76;72.27;100154.00;4967672;28;20786;-78
2021/08/06 05:05:54;;;;;;;4.40;4.00;;;;;;;18.54;73.70;100165.38;4968656;28;20223;-77
2021/08/06 05:08:21;;;;;;;5.70;3.80;;;;;;;18.62;73.87;100160.41;4971230;28;20221;-77
2021/08/06 05:10:49;;;;;;;5.83;3.90;;;;;;;18.69;73.44;100163.59;4967499;28;20217;-77
2021/08/06 05:13:15;;;;;;;4.57;3.87;;;;;;;18.60;73.88;100160.72;4971395;28;20250;-77
2021/08/06 05:15:41;;;;;;;5.00;4.17;;;;;;;18.32;75.13;100161.66;4971216;28;20288;-77
2021/08/06 05:18:08;;;;;;;4.80;4.30;;;;;;;18.46;74.93;100165.25;4970477;28;20228;-77
2021/08/06 05:20:35;;;;;;;4.13;3.83;;;;;;;18.44;74.87;100157.41;4970476;28;20257;-77
2021/08/06 05:23:01;;;;;;;4.07;3.67;;;;;;;18.40;75.52;100166.38;4966801;28;20331;-77
2021/08/06 05:25:28;;;;;;;4.23;3.83;;;;;;;18.28;75.78;100166.00;4968236;28;20251;-77
2021/08/06 05:27:56;;;;;;;6.13;4.23;;;;;;;18.32;76.14;100164.34;4967962;28;20856;-77
2021/08/06 05:30:22;;;;;;;4.40;4.00;;;;;;;18.34;76.10;100162.97;4969904;28;20212;-77
2021/08/06 05:32:49;;;;;;;4.37;3.97;;;;;;;18.50;75.59;100156.25;4970656;28;20247;-77
2021/08/06 05:35:16;;;;;;;5.73;4.47;;;;;;;18.35;76.12;100169.97;4972178;28;20292;-77
2021/08/06 05:37:42;;;;;;;4.57;4.17;;;;;;;18.31;76.07;100162.75;4970690;28;20336;-79
2021/08/06 05:40:09;;;;;;;4.47;4.00;;;;;;;18.14;77.02;100161.31;4970598;28;20426;-78
2021/08/06 05:42:36;;;;;;;4.30;3.90;;;;;;;18.21;76.60;100160.97;4968481;28;20329;-78
2021/08/06 05:45:04;;;;;;;5.07;4.57;;;;;;;18.32;76.36;100167.84;4970534;28;20535;-78
2021/08/06 05:47:42;;;;;;;5.10;4.70;;;;;;;18.36;76.12;100160.75;4969020;28;20232;-77
2021/08/06 05:50:09;;;;;;;6.67;5.30;;;;;;;18.43;75.71;100158.53;4966274;28;20231;-77
2021/08/06 05:52:36;;;;;;;5.23;4.60;;;;;;;18.46;75.93;100155.22;4971627;28;20227;-78
2021/08/06 05:55:02;;;;;;;5.80;4.87;;;;;;;18.75;74.67;100165.91;4968377;28;20224;-78
2021/08/06 05:57:29;;;;;;;4.77;4.27;;;;;;;18.69;75.42;100166.31;4969132;28;20241;-77
2021/08/06 05:59:55;;;;;;;5.47;4.97;;;;;;;18.71;75.20;100158.69;4967215;28;20213;-77
2021/08/06 06:02:23;;;;;;;5.73;4.70;;;;;;;19.05;73.97;100164.63;4967186;28;20711;-77
2021/08/06 06:04:49;;;;;;;5.23;4.77;;;;;;;18.91;74.32;100163.78;4967297;28;20594;-77
2021/08/06 06:07:16;;;;;;;5.40;4.90;;;;;;;19.09;73.95;100170.28;4967228;28;20216;-78
2021/08/06 06:09:42;;;;;;;9.30;5.57;;;;;;;19.00;74.37;100163.94;4968519;28;20199;-77
2021/08/06 06:12:09;;;;;;;5.47;5.00;;;;;;;19.37;73.09;100173.88;4967369;28;20741;-77
2021/08/06 06:14:35;;;;;;;6.00;5.37;;;;;;;18.98;74.38;100175.06;4968393;28;20801;-78
2021/08/06 06:17:02;;;;;;;7.10;5.40;;;;;;;18.67;75.25;100174.69;4968988;28;20316;-77
2021/08/06 06:19:29;;;;;;;6.63;5.67;;;;;;;19.00;74.30;100169.34;4966864;28;20241;-77
2021/08/06 06:21:56;;;;;;;6.80;5.50;;;;;;;18.99;74.57;100170.44;4969052;28;20213;-77
2021/08/06 06:24:22;;;;;;;6.77;5.77;;;;;;;18.88;75.00;100169.78;4968152;28;20303;-77
2021/08/06 06:26:49;;;;;;;6.03;5.30;;;;;;;19.25;73.93;100170.81;4968449;28;20270;-77
2021/08/06 06:29:15;;;;;;;7.00;5.77;;;;;;;19.37;73.72;100168.44;4966228;28;20250;-77
2021/08/06 06:31:42;;;;;;;5.90;5.30;;;;;;;19.73;71.88;100165.94;4968118;28;20221;-77
2021/08/06 06:34:08;;;;;;;6.00;5.27;;;;;;;19.81;71.44;100165.22;4968120;28;20240;-77
2021/08/06 06:36:36;;;;;;;5.97;5.10;;;;;;;19.52;72.24;100170.09;4964677;28;20725;-77
2021/08/06 06:39:02;;;;;;;6.07;5.10;;;;;;;19.11;73.81;100179.72;4966114;28;20217;-77
2021/08/06 06:41:29;;;;;;;6.97;5.70;;;;;;;19.01;74.19;100177.16;4967155;28;20268;-77
2021/08/06 06:43:55;;;;;;;6.17;5.53;;;;;;;19.32;73.58;100174.78;4968411;28;20242;-77
2021/08/06 06:46:21;;;;;;;5.63;5.13;;;;;;;19.05;74.21;100177.38;4966973;28;21043;-77
2021/08/06 06:48:48;;;;;;;6.67;5.23;;;;;;;19.27;74.02;100171.34;4967152;28;20292;-77
2021/08/06 06:51:14;;;;;;;5.70;5.10;;;;;;;19.41;73.35;100175.69;4966748;28;20228;-77
2021/08/06 06:53:46;;;;;;;5.97;5.47;;;;;;;19.27;74.06;100174.84;4968777;28;20611;-77
2021/08/06 06:56:12;;;;;;;6.03;4.77;;;;;;;19.50;72.89;100164.16;4966508;28;20317;-77
2021/08/06 06:58:38;;;;;;;5.60;5.03;;;;;;;19.44;72.99;100168.88;4966590;28;20294;-77
2021/08/06 07:01:05;;;;;;;5.33;4.87;;;;;;;19.62;72.39;100167.22;4967122;28;20680;-77
2021/08/06 07:03:33;;;;;;;7.53;5.10;;;;;;;19.67;72.47;100173.34;4968814;28;21258;-76
2021/08/06 07:06:00;;;;;;;6.83;5.10;;;;;;;19.75;71.97;100171.84;4965514;28;20224;-77
2021/08/06 07:08:26;;;;;;;7.87;5.07;;;;;;;19.90;71.91;100173.47;4963530;28;20239;-77
2021/08/06 07:10:54;;;;;;;6.53;5.00;;;;;;;19.72;72.46;100174.38;4963031;28;20216;-77
2021/08/06 07:13:20;;;;;;;5.70;4.70;;;;;;;20.04;72.45;100181.59;4965146;28;20273;-78
2021/08/06 07:15:47;;;;;;;5.47;4.63;;;;;;;19.45;73.35;100184.03;4967094;28;20221;-77
2021/08/06 07:18:13;;;;;;;5.23;4.83;;;;;;;19.34;73.74;100190.72;4966446;28;20282;-76
2021/08/06 07:20:40;;;;;;;4.97;4.53;;;;;;;19.25;74.16;100187.88;4967466;28;20226;-77
2021/08/06 07:23:07;;;;;;;5.70;5.10;;;;;;;19.24;73.45;100189.00;4966168;28;20236;-77
2021/08/06 07:25:33;;;;;;;4.97;4.57;;;;;;;19.62;73.08;100183.50;4967343;28;20625;-76
2021/08/06 07:28:01;;;;;;;5.10;4.70;;;;;;;20.00;71.37;100189.53;4966764;28;20266;-77
2021/08/06 07:30:28;;;;;;;5.30;4.80;;;;;;;19.94;70.96;100188.81;4967204;28;21004;-77
2021/08/06 07:32:54;;;;;;;4.87;4.47;;;;;;;19.59;72.76;100195.72;4963589;28;20209;-77
2021/08/06 07:35:21;;;;;;;5.13;4.63;;;;;;;20.06;71.64;100187.53;4968803;28;21276;-76
2021/08/06 07:37:47;;;;;;;5.17;4.67;;;;;;;20.05;70.76;100185.91;4964442;28;20223;-77
2021/08/06 07:40:16;;;;;;;4.73;4.37;;;;;;;19.50;72.93;100193.97;4968541;28;20224;-77
2021/08/06 07:42:43;;;;;;;4.67;4.27;;;;;;;19.57;72.14;100181.69;4966500;28;20210;-77
2021/08/06 07:45:14;;;;;;;4.17;3.77;;;;;;;19.38;72.30;100189.81;4977247;28;20251;-77
2021/08/06 07:47:40;;;;;;;4.10;3.70;;;;;;;19.63;70.99;100183.19;4971300;28;20692;-77
2021/08/06 07:50:08;;;;;;;4.10;3.70;;;;;;;19.73;70.55;100192.25;4968186;28;20238;-78
2021/08/06 07:52:35;;;;;;;4.10;3.80;;;;;;;19.77;70.57;100185.09;4966125;28;20259;-78
2021/08/06 07:55:01;;;;;;;4.20;3.80;;;;;;;20.31;69.21;100181.56;4966254;28;20220;-77
2021/08/06 07:57:28;;;;;;;5.10;3.90;;;;;;;20.54;67.71;100198.75;4967270;28;20250;-77
2021/08/06 07:59:54;;;;;;;4.07;3.67;;;;;;;20.43;67.99;100190.03;4969879;28;20219;-78
2021/08/06 08:02:23;;;;;;;4.87;3.97;;;;;;;20.47;67.26;100198.38;4968167;28;20210;-77
2021/08/06 08:04:49;;;;;;;4.27;3.83;;;;;;;19.96;69.34;100197.47;4972355;28;20289;-78
2021/08/06 08:07:16;;;;;;;4.30;3.87;;;;;;;20.07;68.91;100192.63;4971675;28;20216;-78
2021/08/06 08:09:42;;;;;;;3.83;3.53;;;;;;;20.44;66.94;100188.91;4971576;28;20251;-78
2021/08/06 08:12:10;;;;;;;3.67;3.30;;;;;;;20.51;67.94;100200.19;4977275;28;20225;-78
2021/08/06 08:14:36;;;;;;;3.77;3.47;;;;;;;20.94;66.84;100201.66;4973010;28;20211;-78
2021/08/06 08:17:03;;;;;;;3.90;3.60;;;;;;;21.01;65.55;100210.19;4976693;28;20225;-79
2021/08/06 08:19:31;;;;;;;4.20;2.40;;;;;;;20.92;65.11;100210.13;4972669;28;20342;-78
2021/08/06 08:21:57;;;;;;;4.03;3.20;;;;;;;20.09;67.06;100205.94;4969511;28;20227;-78
2021/08/06 08:24:24;;;;;;;4.67;4.27;;;;;;;19.71;68.80;100213.44;4976665;28;20233;-79
2021/08/06 08:26:50;;;;;;;6.57;4.23;;;;;;;19.52;70.01;100205.31;4972808;28;20212;-77
2021/08/06 08:29:17;;;;;;;3.93;3.50;;;;;;;19.93;69.03;100214.34;4969371;28;20216;-78
2021/08/06 08:31:43;;;;;;;5.90;4.43;;;;;;;20.07;66.53;100203.50;4969202;28;20213;-78
2021/08/06 08:34:10;;;;;;;6.83;4.00;;;;;;;20.29;66.57;100205.50;4969339;28;20232;-78
2021/08/06 08:36:38;;;;;;;4.30;3.90;;;;;;;19.93;66.32;100208.09;4971620;28;20205;-78
2021/08/06 08:39:04;;;;;;;4.87;4.10;;;;;;;20.24;66.12;100195.56;4969718;28;20206;-78
2021/08/06 08:41:31;;;;;;;7.37;5.17;;;;;;;20.20;66.02;100202.72;4973471;28;20302;-78
2021/08/06 08:43:58;;;;;;;5.20;4.67;;;;;;;20.00;66.78;100208.53;4972607;28;20247;-78
2021/08/06 08:46:27;;;;;;;5.47;4.97;;;;;;;19.64;68.05;100203.75;4972686;28;20215;-77
2021/08/06 08:48:56;;;;;;;5.97;5.33;;;;;;;19.95;67.65;100203.22;4971532;28;20657;-78
2021/08/06 08:51:24;;;;;;;8.23;5.17;;;;;;;20.17;66.66;100200.56;4976010;28;20246;-78
2021/08/06 08:53:52;;;;;;;6.40;6.00;;;;;;;20.63;66.48;100212.41;4973407;28;20566;-77
2021/08/06 08:56:19;;;;;;;5.63;5.13;;;;;;;20.91;62.77;100222.09;4973670;28;20256;-79
2021/08/06 08:58:45;;;;;;;5.63;5.13;;;;;;;20.40;64.20;100206.91;4976360;28;20234;-78
2021/08/06 09:01:12;;;;;;;5.90;5.40;;;;;;;20.89;63.34;100218.88;4976473;28;20213;-77
2021/08/06 09:03:40;;;;;;;6.00;5.50;;;;;;;20.32;65.58;100217.66;4975742;28;20648;-78
2021/08/06 09:06:08;;;;;;;5.30;4.40;;;;;;;21.13;62.16;100207.75;4975119;28;20311;-78
2021/08/06 09:08:34;;;;;;;7.27;4.70;;;;;;;21.28;61.64;100212.81;4973368;28;20262;-78
2021/08/06 09:11:02;;;;;;;5.97;4.90;;;;;;;21.53;61.22;100203.22;4977658;28;20656;-78
2021/08/06 09:13:28;;;;;;;5.00;4.50;;;;;;;21.59;60.67;100215.56;4978171;28;20209;-79
2021/08/06 09:15:57;;;;;;;4.07;3.67;;;;;;;20.97;59.19;100203.78;4983329;28;20220;-78
2021/08/06 09:18:28;;;;;;;3.93;3.30;;;;;;;20.73;59.19;100204.06;4979292;28;20248;-79
2021/08/06 09:20:56;;;;;;;5.07;3.37;;;;;;;20.47;60.71;100192.97;4974633;28;20856;-79
2021/08/06 09:23:37;;;;;;;5.77;4.30;;;;;;;20.38;61.55;100198.25;4974871;28;20567;-78
2021/08/06 09:26:05;;;;;;;5.57;4.00;;;;;;;20.27;61.85;100203.09;4975438;28;20319;-79
2021/08/06 09:28:32;;;;;;;6.20;3.80;;;;;;;19.85;62.75;100195.28;4977812;28;20311;-79
2021/08/06 09:31:14;;;;;;;5.10;3.97;;;;;;;19.88;62.56;100200.88;4975737;28;20243;-81
2021/08/06 09:33:40;;;;;;;4.80;3.43;;;;;;;20.22;62.60;100194.25;4975375;28;20239;-79
2021/08/06 09:36:10;;;;;;;6.53;3.70;;;;;;;20.54;62.48;100201.47;4974571;28;20217;-78
2021/08/06 09:38:37;;;;;;;4.63;3.20;;;;;;;20.44;62.47;100197.06;4975378;28;20279;-78
2021/08/06 09:41:05;;;;;;;6.90;3.60;;;;;;;20.22;61.94;100197.78;4974777;28;20215;-78
2021/08/06 09:43:31;;;;;;;5.73;3.50;;;;;;;21.01;60.47;100192.00;4972812;28;21009;-78
2021/08/06 09:45:58;;;;;;;4.63;3.27;;;;;;;21.97;57.03;100196.06;4973352;28;20224;-79
2021/08/06 09:48:25;;;;;;;5.17;3.10;;;;;;;22.43;56.58;100197.50;4981375;28;20216;-80
2021/08/06 09:50:56;;;;;;;4.10;3.30;;;;;;;22.79;55.33;100199.97;4978251;28;20242;-80
2021/08/06 09:53:25;;;;;;;5.80;3.73;;;;;;;22.38;55.50;100189.50;4987757;28;20233;-78
2021/08/06 09:55:52;;;;;;;5.07;3.40;;;;;;;21.77;57.13;100210.22;4977478;28;20228;-79
2021/08/06 09:58:21;;;;;;;4.07;3.00;;;;;;;21.65;57.85;100211.63;4977776;28;20245;-80
2021/08/06 10:00:49;;;;;;;5.80;3.00;;;;;;;21.32;58.46;100204.84;4976336;28;20217;-79
2021/08/06 10:03:26;;;;;;;4.13;3.00;;;;;;;21.15;59.01;100211.75;4973687;28;20220;-80
2021/08/06 10:06:07;;;;;;;4.37;2.97;;;;;;;21.05;59.30;100213.91;4976627;28;20250;-78
2021/08/06 10:08:33;;;;;;;5.00;2.90;;;;;;;21.12;59.43;100214.28;4976412;28;20208;-81
2021/08/06 10:11:00;;;;;;;5.67;3.07;;;;;;;21.11;58.92;100210.75;4977987;28;20221;-79
2021/08/06 10:13:28;;;;;;;5.47;2.70;;;;;;;21.03;59.51;100210.69;4974180;28;20225;-79
2021/08/06 10:15:55;;;;;;;3.20;2.90;;;;;;;21.08;59.23;100213.28;4972485;28;20292;-79
2021/08/06 10:18:21;;;;;;;4.53;3.23;;;;;;;21.18;58.80;100221.19;4973606;28;20216;-79
2021/08/06 10:20:48;;;;;;;6.37;3.50;;;;;;;21.36;58.75;100214.81;4975414;28;20279;-78
2021/08/06 10:23:15;;;;;;;3.63;2.90;;;;;;;21.42;58.29;100216.28;4970656;28;20224;-78
2021/08/06 10:25:42;;;;;;;6.07;2.97;;;;;;;20.98;58.84;100218.97;4974417;28;20251;-80
2021/08/06 10:28:09;;;;;;;4.43;2.70;;;;;;;20.89;59.66;100199.06;4978600;28;20219;-81
2021/08/06 10:30:43;;;;;;;5.57;3.27;;;;;;;20.35;63.60;100227.91;4981490;28;20232;-80
2021/08/06 10:33:19;;;;;;;5.77;3.20;;;;;;;20.16;65.20;100226.09;4980124;28;20212;-81
2021/08/06 10:35:48;;;;;;;3.97;3.57;;;;;;;20.55;64.24;100222.88;4977636;28;20215;-79
2021/08/06 10:38:15;;;;;;;3.83;3.40;;;;;;;21.49;63.10;100226.72;4977272;28;20222;-79
2021/08/06 10:41:14;;;;;;;4.63;3.40;;;;;;;21.55;60.87;100228.19;4977588;28;20224;-80
2021/08/06 10:43:51;;;;;;;5.57;3.20;;;;;;;21.99;59.58;100226.50;4974891;28;20274;-79
2021/08/06 10:46:20;;;;;;;4.70;3.30;;;;;;;21.82;60.13;100227.19;4975831;28;20212;-79
2021/08/06 10:48:48;;;;;;;5.43;3.23;;;;;;;21.77;58.95;100229.25;4975994;28;20244;-80
2021/08/06 10:51:29;;;;;;;5.67;3.00;;;;;;;21.03;60.30;100233.22;4975792;28;20238;-79
2021/08/06 10:54:26;;;;;;;6.60;3.40;;;;;;;20.11;68.18;100258.75;4981778;28;20220;-82
2021/08/06 10:57:15;;;;;;;4.90;4.40;;;;;;;19.72;69.99;100244.84;4982346;28;20245;-83
2021/08/06 10:59:42;;;;;;;5.80;4.30;;;;;;;20.00;68.11;100241.06;4985674;28;20218;-84
2021/08/06 11:02:48;;;;;;;4.07;3.53;;;;;;;20.93;66.99;100238.06;4981351;28;20272;-83
2021/08/06 11:05:46;;;;;;;4.57;4.10;;;;;;;21.33;63.87;100239.06;4970236;28;20229;-83
2021/08/06 11:08:45;;;;;;;5.13;3.57;;;;;;;20.46;63.34;100232.88;4978805;28;20221;-81
2021/08/06 11:11:45;;;;;;;5.83;4.00;;;;;;;20.13;64.02;100217.78;4979856;28;20252;-83
2021/08/06 11:14:12;;;;;;;5.47;3.83;;;;;;;20.32;63.93;100231.22;4978660;28;20213;-80
2021/08/06 11:17:03;;;;;;;5.23;4.37;;;;;;;20.34;62.50;100224.41;4977442;28;20257;-81
2021/08/06 11:19:32;;;;;;;4.20;3.60;;;;;;;21.01;62.20;100231.94;4980410;28;20238;-81
2021/08/06 11:22:01;;;;;;;5.30;3.77;;;;;;;21.51;61.50;100220.97;4978151;28;20240;-82
2021/08/06 11:24:34;;;;;;;5.27;4.03;;;;;;;21.85;59.24;100210.28;4978568;28;20282;-81